createdAt,value
2018-07-16T00:01:02.377Z,21.40
2018-07-16T00:03:31.963Z,21.40
2018-07-16T00:06:01.603Z,21.30
2018-07-16T00:08:31.129Z,21.30
2018-07-16T00:11:00.849Z,21.30
2018-07-16T00:13:30.502Z,21.30
2018-07-16T00:16:00.214Z,21.20
2018-07-16T00:18:29.751Z,21.20
2018-07-16T00:20:59.710Z,21.20
2018-07-16T00:23:29.282Z,21.20
2018-07-16T00:25:58.968Z,21.20
2018-07-16T00:28:28.647Z,21.10
2018-07-16T00:31:00.604Z,21.10
2018-07-16T00:33:30.261Z,21.10
2018-07-16T00:35:59.994Z,21.10
2018-07-16T00:38:29.535Z,21.00
2018-07-16T00:40:59.426Z,21.00
2018-07-16T00:43:29.525Z,21.00
2018-07-16T00:45:59.283Z,21.00
2018-07-16T00:48:28.980Z,21.00
2018-07-16T00:50:58.903Z,20.90
2018-07-16T00:53:28.473Z,20.90
2018-07-16T00:55:58.083Z,20.90
2018-07-16T00:58:28.153Z,20.90
2018-07-16T01:00:57.775Z,20.80
2018-07-16T01:03:27.422Z,20.80
2018-07-16T01:05:57.255Z,20.80
2018-07-16T01:08:27.034Z,20.80
2018-07-16T01:10:56.614Z,20.80
2018-07-16T01:13:26.251Z,20.70
2018-07-16T01:15:55.985Z,20.70
2018-07-16T01:18:25.711Z,20.70
2018-07-16T01:20:55.550Z,20.60
2018-07-16T01:23:25.473Z,20.60
2018-07-16T01:25:55.398Z,20.60
2018-07-16T01:28:27.966Z,20.60
2018-07-16T01:30:57.543Z,20.60
2018-07-16T01:33:27.233Z,20.50
2018-07-16T01:35:56.759Z,20.50
2018-07-16T01:38:26.291Z,20.50
2018-07-16T01:40:57.266Z,20.50
2018-07-16T01:43:26.838Z,20.40
2018-07-16T01:45:56.615Z,20.40
2018-07-16T01:48:26.285Z,20.40
2018-07-16T01:50:56.147Z,20.40
2018-07-16T01:53:26.285Z,20.30
2018-07-16T01:55:56.433Z,20.30
2018-07-16T01:58:26.162Z,20.30
2018-07-16T02:00:59.895Z,20.30
2018-07-16T02:03:30.833Z,20.20
2018-07-16T02:06:00.534Z,20.20
2018-07-16T02:08:30.473Z,20.20
2018-07-16T02:11:00.625Z,20.20
2018-07-16T02:13:30.207Z,20.10
2018-07-16T02:15:59.834Z,20.10
2018-07-16T02:18:29.510Z,20.10
2018-07-16T02:20:59.473Z,20.10
2018-07-16T02:23:29.027Z,20.00
2018-07-16T02:25:58.818Z,20.00
2018-07-16T02:28:28.542Z,20.00
2018-07-16T02:30:58.257Z,20.00
2018-07-16T02:33:28.073Z,20.00
2018-07-16T02:35:57.663Z,19.90
2018-07-16T02:38:27.226Z,19.90
2018-07-16T02:40:56.997Z,19.90
2018-07-16T02:43:26.533Z,19.90
2018-07-16T02:45:56.330Z,19.80
2018-07-16T02:48:25.897Z,19.80
2018-07-16T02:50:55.454Z,19.80
2018-07-16T02:53:25.025Z,19.80
2018-07-16T02:55:54.601Z,19.80
2018-07-16T02:58:24.129Z,19.70
2018-07-16T03:00:54.342Z,19.70
2018-07-16T03:03:23.946Z,19.70
2018-07-16T03:05:53.449Z,19.60
2018-07-16T03:08:23.142Z,19.60
2018-07-16T03:10:59.510Z,19.60
2018-07-16T03:13:29.720Z,19.60
2018-07-16T03:15:59.590Z,19.60
2018-07-16T03:18:29.106Z,19.60
2018-07-16T03:20:58.710Z,19.50
2018-07-16T03:23:28.249Z,19.50
2018-07-16T03:25:58.915Z,19.50
2018-07-16T03:28:28.646Z,19.50
2018-07-16T03:31:00.458Z,19.50
2018-07-16T03:33:32.126Z,19.40
2018-07-16T03:36:02.498Z,19.50
2018-07-16T03:38:32.356Z,19.40
2018-07-16T03:41:03.783Z,19.40
2018-07-16T03:43:35.381Z,19.40
2018-07-16T03:46:05.372Z,19.30
2018-07-16T03:48:34.949Z,19.30
2018-07-16T03:51:04.536Z,19.30
2018-07-16T03:53:34.255Z,19.30
2018-07-16T03:56:04.395Z,19.30
2018-07-16T03:58:34.289Z,19.30
2018-07-16T04:01:03.862Z,19.30
2018-07-16T04:03:33.699Z,19.20
2018-07-16T04:06:03.312Z,19.20
2018-07-16T04:08:33.017Z,19.20
2018-07-16T04:11:03.078Z,19.20
2018-07-16T04:13:32.633Z,19.10
2018-07-16T04:16:02.486Z,19.10
2018-07-16T04:18:32.254Z,19.10
2018-07-16T04:21:02.613Z,19.10
2018-07-16T04:23:32.437Z,19.10
2018-07-16T04:26:03.766Z,19.10
2018-07-16T04:28:34.274Z,19.10
2018-07-16T04:31:03.944Z,19.00
2018-07-16T04:33:35.165Z,19.10
2018-07-16T04:36:04.910Z,19.10
2018-07-16T04:38:34.565Z,19.00
2018-07-16T04:41:04.521Z,19.00
2018-07-16T04:43:34.424Z,19.00
2018-07-16T04:46:04.337Z,18.90
2018-07-16T04:48:34.458Z,19.00
2018-07-16T04:51:04.624Z,18.90
2018-07-16T04:53:35.890Z,18.90
2018-07-16T04:56:05.658Z,18.90
2018-07-16T04:58:35.754Z,18.90
2018-07-16T05:01:05.528Z,18.90
2018-07-16T05:03:35.386Z,18.90
2018-07-16T05:06:06.308Z,18.90
2018-07-16T05:08:35.993Z,18.90
2018-07-16T05:11:06.075Z,18.90
2018-07-16T05:13:35.669Z,18.90
2018-07-16T05:16:05.762Z,18.80
2018-07-16T05:18:35.747Z,18.80
2018-07-16T05:21:06.397Z,18.80
2018-07-16T05:23:37.089Z,18.80
2018-07-16T05:26:06.876Z,18.80
2018-07-16T05:28:36.420Z,18.80
2018-07-16T05:31:06.258Z,18.80
2018-07-16T05:33:36.205Z,18.80
2018-07-16T05:36:05.930Z,18.80
2018-07-16T05:38:35.615Z,18.80
2018-07-16T05:41:05.320Z,18.80
2018-07-16T05:43:35.236Z,18.80
2018-07-16T05:46:05.558Z,18.80
2018-07-16T05:48:35.308Z,18.80
2018-07-16T05:51:05.198Z,18.80
2018-07-16T05:53:35.301Z,18.80
2018-07-16T05:56:08.038Z,18.80
2018-07-16T05:58:38.721Z,18.80
2018-07-16T06:01:08.531Z,18.80
2018-07-16T06:03:38.527Z,18.90
2018-07-16T06:06:08.984Z,18.90
2018-07-16T06:08:39.159Z,18.90
2018-07-16T06:11:09.160Z,18.90
2018-07-16T06:13:39.131Z,18.90
2018-07-16T06:16:09.476Z,18.90
2018-07-16T06:18:39.367Z,18.90
2018-07-16T06:21:09.457Z,18.90
2018-07-16T06:23:39.620Z,18.90
2018-07-16T06:26:09.740Z,18.90
2018-07-16T06:28:39.634Z,19.00
2018-07-16T06:31:24.692Z,19.00
2018-07-16T06:33:55.439Z,19.00
2018-07-16T06:36:25.546Z,19.00
2018-07-16T06:38:55.550Z,19.00
2018-07-16T06:41:25.928Z,19.10
2018-07-16T06:43:55.728Z,19.10
2018-07-16T06:46:25.645Z,19.10
2018-07-16T06:48:55.458Z,19.10
2018-07-16T06:51:25.474Z,19.20
2018-07-16T06:53:55.384Z,19.20
2018-07-16T06:56:25.530Z,19.20
2018-07-16T06:58:55.618Z,19.30
2018-07-16T07:01:25.537Z,19.30
2018-07-16T07:03:55.845Z,19.30
2018-07-16T07:06:25.762Z,19.30
2018-07-16T07:08:55.694Z,19.30
2018-07-16T07:11:25.810Z,19.40
2018-07-16T07:13:55.738Z,19.40
2018-07-16T07:16:25.818Z,19.40
2018-07-16T07:18:57.187Z,19.50
2018-07-16T07:21:27.113Z,19.50
2018-07-16T07:23:57.413Z,19.50
2018-07-16T07:26:27.307Z,19.60
2018-07-16T07:28:57.175Z,19.60
2018-07-16T07:31:27.166Z,19.70
2018-07-16T07:33:57.297Z,19.80
2018-07-16T07:36:27.406Z,19.80
2018-07-16T07:38:57.519Z,19.80
2018-07-16T07:41:27.630Z,19.80
2018-07-16T07:43:58.162Z,19.80
2018-07-16T07:46:28.347Z,19.90
2018-07-16T07:48:58.317Z,19.90
2018-07-16T07:51:28.145Z,20.00
2018-07-16T07:53:58.141Z,20.00
2018-07-16T07:56:27.902Z,20.00
2018-07-16T07:58:57.432Z,20.10
2018-07-16T08:01:26.998Z,20.10
2018-07-16T08:03:57.150Z,20.10
2018-07-16T08:06:26.880Z,20.20
2018-07-16T08:08:56.579Z,20.20
2018-07-16T08:11:26.181Z,20.20
2018-07-16T08:13:56.088Z,20.30
2018-07-16T08:16:25.874Z,20.30
2018-07-16T08:18:55.782Z,20.30
2018-07-16T08:21:25.588Z,20.40
2018-07-16T08:23:55.124Z,20.40
2018-07-16T08:26:25.470Z,20.50
2018-07-16T08:28:54.970Z,20.50
2018-07-16T08:31:24.472Z,20.50
2018-07-16T08:33:55.166Z,20.60
2018-07-16T08:36:24.891Z,20.60
2018-07-16T08:38:54.703Z,20.60
2018-07-16T08:41:25.114Z,20.60
2018-07-16T08:43:55.316Z,20.70
2018-07-16T08:46:25.102Z,20.70
2018-07-16T08:48:54.935Z,20.70
2018-07-16T08:51:25.957Z,20.80
2018-07-16T08:53:56.863Z,20.80
2018-07-16T08:56:27.417Z,20.90
2018-07-16T09:01:26.515Z,21.00
2018-07-16T09:03:56.064Z,21.00
2018-07-16T09:06:25.740Z,21.10
2018-07-16T09:08:55.241Z,21.10
2018-07-16T09:11:25.788Z,21.10
2018-07-16T09:13:55.424Z,21.10
2018-07-16T09:16:25.044Z,21.20
2018-07-16T09:18:54.990Z,21.20
2018-07-16T09:21:25.898Z,21.30
2018-07-16T09:23:55.753Z,21.30
2018-07-16T09:26:25.957Z,21.40
2018-07-16T09:28:55.786Z,21.40
2018-07-16T09:31:25.872Z,21.40
2018-07-16T09:33:55.475Z,21.50
2018-07-16T09:36:24.983Z,21.50
2018-07-16T09:38:54.837Z,21.60
2018-07-16T09:41:24.500Z,21.60
2018-07-16T09:43:54.077Z,21.60
2018-07-16T09:46:23.715Z,21.70
2018-07-16T09:48:53.398Z,21.70
2018-07-16T09:51:23.101Z,21.80
2018-07-16T09:53:52.605Z,21.80
2018-07-16T09:56:22.179Z,21.80
2018-07-16T09:58:51.925Z,21.90
2018-07-16T10:01:26.560Z,21.90
2018-07-16T10:03:56.239Z,22.00
2018-07-16T10:06:25.809Z,22.00
2018-07-16T10:08:55.842Z,22.00
2018-07-16T10:11:25.426Z,22.10
2018-07-16T10:13:54.880Z,22.20
2018-07-16T10:16:24.621Z,22.20
2018-07-16T10:18:54.362Z,22.30
2018-07-16T10:21:24.321Z,22.30
2018-07-16T10:23:54.114Z,22.30
2018-07-16T10:26:23.836Z,22.40
2018-07-16T10:28:53.615Z,22.40
2018-07-16T10:31:23.118Z,22.50
2018-07-16T10:33:53.507Z,22.50
2018-07-16T10:36:22.982Z,22.50
2018-07-16T10:38:52.804Z,22.50
2018-07-16T10:41:22.418Z,22.50
2018-07-16T10:43:52.126Z,22.60
2018-07-16T10:46:21.647Z,22.60
2018-07-16T10:48:51.311Z,22.60
2018-07-16T10:51:35.519Z,22.60
2018-07-16T10:54:05.302Z,22.70
2018-07-16T10:56:35.196Z,22.80
2018-07-16T10:59:04.770Z,22.80
2018-07-16T11:01:34.788Z,22.90
2018-07-16T11:04:04.527Z,23.00
2018-07-16T11:09:03.186Z,23.00
2018-07-16T11:11:32.848Z,23.10
2018-07-16T11:14:02.346Z,23.20
2018-07-16T11:16:31.951Z,23.20
2018-07-16T11:19:01.525Z,23.20
2018-07-16T11:21:31.364Z,23.30
2018-07-16T11:24:01.028Z,23.30
2018-07-16T11:26:30.780Z,23.40
2018-07-16T11:29:00.599Z,23.40
2018-07-16T11:31:30.372Z,23.50
2018-07-16T11:34:00.139Z,23.50
2018-07-16T11:36:29.601Z,23.60
2018-07-16T11:38:59.472Z,23.60
2018-07-16T11:41:35.509Z,23.70
2018-07-16T11:44:05.165Z,23.70
2018-07-16T11:46:34.625Z,23.80
2018-07-16T11:49:04.233Z,23.80
2018-07-16T11:51:33.714Z,23.80
2018-07-16T11:59:01.452Z,24.00
2018-07-16T12:01:31.029Z,24.00
2018-07-16T12:04:00.513Z,24.00
2018-07-16T12:06:30.247Z,24.10
2018-07-16T12:09:00.364Z,24.10
2018-07-16T12:11:30.406Z,24.10
2018-07-16T12:14:00.057Z,24.20
2018-07-16T12:16:29.887Z,24.20
2018-07-16T12:18:59.420Z,24.20
2018-07-16T12:21:29.244Z,24.30
2018-07-16T12:23:58.711Z,24.30
2018-07-16T12:26:28.255Z,24.40
2018-07-16T12:28:58.190Z,24.40
2018-07-16T12:31:27.949Z,24.40
2018-07-16T12:33:57.468Z,24.40
2018-07-16T12:36:27.197Z,24.50
2018-07-16T12:38:56.763Z,24.50
2018-07-16T12:41:26.601Z,24.50
2018-07-16T12:43:56.588Z,24.60
2018-07-16T12:46:26.476Z,24.60
2018-07-16T12:48:56.328Z,24.70
2018-07-16T12:51:26.035Z,24.70
2018-07-16T12:53:55.767Z,24.70
2018-07-16T12:56:26.021Z,24.70
2018-07-16T12:58:55.732Z,24.70
2018-07-16T13:01:25.442Z,24.70
2018-07-16T13:03:55.068Z,24.70
2018-07-16T13:06:24.714Z,24.80
2018-07-16T13:08:55.008Z,24.80
2018-07-16T13:11:24.889Z,24.80
2018-07-16T13:13:55.399Z,24.90
2018-07-16T13:16:25.021Z,24.90
2018-07-16T13:18:55.055Z,25.00
2018-07-16T13:21:24.664Z,25.00
2018-07-16T13:23:54.372Z,25.00
2018-07-16T13:26:23.849Z,25.00
2018-07-16T13:28:53.987Z,25.00
2018-07-16T13:31:23.594Z,25.00
2018-07-16T13:33:53.322Z,25.10
2018-07-16T13:36:23.297Z,25.10
2018-07-16T13:38:52.968Z,25.10
2018-07-16T13:41:23.493Z,25.10
2018-07-16T13:43:53.617Z,25.10
2018-07-16T13:46:30.118Z,25.10
2018-07-16T13:48:59.503Z,25.10
2018-07-16T13:51:29.051Z,25.20
2018-07-16T13:53:58.530Z,25.20
2018-07-16T13:56:28.017Z,25.20
2018-07-16T13:58:57.577Z,25.20
2018-07-16T14:01:27.125Z,25.30
2018-07-16T14:03:56.763Z,25.30
2018-07-16T14:06:26.261Z,25.30
2018-07-16T14:08:56.047Z,25.30
2018-07-16T14:11:25.526Z,25.40
2018-07-16T14:13:55.031Z,25.40
2018-07-16T14:16:25.305Z,25.40
2018-07-16T14:18:54.892Z,25.40
2018-07-16T14:21:24.548Z,25.40
2018-07-16T14:23:54.240Z,25.40
2018-07-16T14:26:23.819Z,25.50
2018-07-16T14:28:53.283Z,25.50
2018-07-16T14:31:22.983Z,25.50
2018-07-16T14:33:52.646Z,25.50
2018-07-16T14:36:22.563Z,25.40
2018-07-16T14:38:52.170Z,25.40
2018-07-16T14:41:21.753Z,25.50
2018-07-16T14:43:51.503Z,25.50
2018-07-16T14:46:20.978Z,25.50
2018-07-16T14:51:19.606Z,25.50
2018-07-16T14:53:49.241Z,25.50
2018-07-16T14:56:19.004Z,25.60
2018-07-16T14:58:48.733Z,25.50
2018-07-16T15:01:18.397Z,25.50
2018-07-16T15:03:47.849Z,25.60
2018-07-16T15:06:17.349Z,25.60
2018-07-16T15:08:47.100Z,25.60
2018-07-16T15:11:16.570Z,25.60
2018-07-16T15:13:47.010Z,25.60
2018-07-16T15:16:16.555Z,25.60
2018-07-16T15:18:46.081Z,25.70
2018-07-16T15:21:16.097Z,25.70
2018-07-16T15:23:45.430Z,25.70
2018-07-16T15:26:15.155Z,25.70
2018-07-16T15:28:45.594Z,25.70
2018-07-16T15:31:15.320Z,25.70
2018-07-16T15:33:45.040Z,25.70
2018-07-16T15:38:44.030Z,25.70
2018-07-16T15:41:14.052Z,25.70
2018-07-16T15:43:43.912Z,25.70
2018-07-16T15:46:13.382Z,25.70
2018-07-16T15:48:43.222Z,25.70
2018-07-16T15:51:12.910Z,25.80
2018-07-16T15:53:51.338Z,25.80
2018-07-16T15:56:33.406Z,25.80
2018-07-16T15:59:03.763Z,25.80
2018-07-16T16:01:33.790Z,25.80
2018-07-16T16:04:03.519Z,25.80
2018-07-16T16:06:33.251Z,25.80
2018-07-16T16:09:03.005Z,25.80
2018-07-16T16:11:32.976Z,25.80
2018-07-16T16:14:02.939Z,25.80
2018-07-16T16:16:32.811Z,25.80
2018-07-16T16:19:02.406Z,25.80
2018-07-16T16:21:32.552Z,25.80
2018-07-16T16:24:02.436Z,25.80
2018-07-16T16:26:33.226Z,25.80
2018-07-16T16:29:03.771Z,25.90
2018-07-16T16:31:33.293Z,25.80
2018-07-16T16:34:02.761Z,25.90
2018-07-16T16:36:32.611Z,25.90
2018-07-16T16:39:02.673Z,25.90
2018-07-16T16:41:32.533Z,25.80
2018-07-16T16:44:02.068Z,25.90
2018-07-16T16:46:31.662Z,25.80
2018-07-16T16:49:01.447Z,25.90
2018-07-16T16:51:31.623Z,25.90
2018-07-16T16:54:01.328Z,25.90
2018-07-16T16:56:30.955Z,25.90
2018-07-16T16:59:01.298Z,25.90
2018-07-16T17:03:59.999Z,25.90
2018-07-16T17:06:30.135Z,25.90
2018-07-16T17:08:59.951Z,25.90
2018-07-16T17:11:29.497Z,25.90
2018-07-16T17:13:59.246Z,25.90
2018-07-16T17:16:28.888Z,25.90
2018-07-16T17:18:59.300Z,25.90
2018-07-16T17:21:29.620Z,25.80
2018-07-16T17:23:59.535Z,25.80
2018-07-16T17:26:29.295Z,25.80
2018-07-16T17:28:59.201Z,25.80
2018-07-16T17:31:28.727Z,25.80
2018-07-16T17:33:58.917Z,25.80
2018-07-16T17:36:28.615Z,25.80
2018-07-16T17:38:58.347Z,25.80
2018-07-16T17:41:28.023Z,25.80
2018-07-16T17:43:57.510Z,25.80
2018-07-16T17:46:27.844Z,25.80
2018-07-16T17:48:57.389Z,25.80
2018-07-16T17:51:27.103Z,25.70
2018-07-16T17:53:56.611Z,25.70
2018-07-16T17:56:26.289Z,25.70
2018-07-16T17:58:56.021Z,25.70
2018-07-16T18:01:26.493Z,25.70
2018-07-16T18:03:56.251Z,25.70
2018-07-16T18:06:26.060Z,25.70
2018-07-16T18:08:55.867Z,25.70
2018-07-16T18:11:25.712Z,25.70
2018-07-16T18:13:55.499Z,25.70
2018-07-16T18:16:25.215Z,25.70
2018-07-16T18:18:54.890Z,25.70
2018-07-16T18:21:24.729Z,25.70
2018-07-16T18:23:54.591Z,25.70
2018-07-16T18:26:24.310Z,25.60
2018-07-16T18:28:54.187Z,25.60
2018-07-16T18:31:23.952Z,25.60
2018-07-16T18:33:53.776Z,25.60
2018-07-16T18:36:23.728Z,25.60
2018-07-16T18:38:53.501Z,25.60
2018-07-16T18:41:23.249Z,25.60
2018-07-16T18:43:53.156Z,25.80
2018-07-16T18:46:22.837Z,25.90
2018-07-16T18:48:52.674Z,26.10
2018-07-16T18:51:22.199Z,26.10
2018-07-16T18:53:51.930Z,26.20
2018-07-16T18:56:21.578Z,26.20
2018-07-16T18:58:51.452Z,26.30
2018-07-16T19:01:21.075Z,26.30
2018-07-16T19:03:50.956Z,26.30
2018-07-16T19:06:20.852Z,26.30
2018-07-16T19:08:51.047Z,26.30
2018-07-16T19:11:20.673Z,26.30
2018-07-16T19:13:51.072Z,26.40
2018-07-16T19:16:20.915Z,26.30
2018-07-16T19:18:51.224Z,26.30
2018-07-16T19:21:20.756Z,26.30
2018-07-16T19:23:50.252Z,26.30
2018-07-16T19:26:23.884Z,26.30
2018-07-16T19:28:53.444Z,26.30
2018-07-16T19:31:23.233Z,26.30
2018-07-16T19:33:57.792Z,26.30
2018-07-16T19:39:03.598Z,26.30
2018-07-16T19:41:33.631Z,26.30
2018-07-16T19:44:03.835Z,26.30
2018-07-16T19:46:33.626Z,26.30
2018-07-16T19:49:03.026Z,26.30
2018-07-16T19:51:32.807Z,26.30
2018-07-16T19:54:04.952Z,26.30
2018-07-16T19:56:34.743Z,26.30
2018-07-16T19:59:04.720Z,26.20
2018-07-16T20:01:37.086Z,26.20
2018-07-16T20:04:08.605Z,26.20
2018-07-16T20:06:38.553Z,26.20
2018-07-16T20:09:08.565Z,26.20
2018-07-16T20:11:38.250Z,26.10
2018-07-16T20:14:08.411Z,26.10
2018-07-16T20:16:42.432Z,26.10
2018-07-16T20:19:12.652Z,26.10
2018-07-16T20:21:42.627Z,26.10
2018-07-16T20:24:14.976Z,26.10
2018-07-16T20:29:13.840Z,26.10
2018-07-16T20:31:43.720Z,26.00
2018-07-16T20:34:13.452Z,26.00
2018-07-16T20:36:43.243Z,25.90
2018-07-16T20:39:13.282Z,25.90
2018-07-16T20:41:43.452Z,25.90
2018-07-16T20:44:13.720Z,25.90
2018-07-16T20:46:43.308Z,25.90
2018-07-16T20:49:14.103Z,25.80
2018-07-16T20:51:45.731Z,25.80
2018-07-16T20:54:18.784Z,25.80
2018-07-16T20:56:55.968Z,25.80
2018-07-16T20:59:26.052Z,25.80
2018-07-16T21:01:56.170Z,25.70
2018-07-16T21:04:26.035Z,25.70
2018-07-16T21:06:55.736Z,25.70
2018-07-16T21:09:25.569Z,25.70
2018-07-16T21:11:56.123Z,25.70
2018-07-16T21:14:25.997Z,25.60
2018-07-16T21:16:56.197Z,25.60
2018-07-16T21:19:25.824Z,25.60
2018-07-16T21:21:55.450Z,25.60
2018-07-16T21:24:24.937Z,25.50
2018-07-16T21:26:55.150Z,25.50
2018-07-16T21:29:24.661Z,25.50
2018-07-16T21:31:54.565Z,25.50
2018-07-16T21:34:24.286Z,25.50
2018-07-16T21:36:53.809Z,25.50
2018-07-16T21:39:23.381Z,25.40
2018-07-16T21:41:53.688Z,25.40
2018-07-16T21:44:23.410Z,25.40
2018-07-16T21:46:53.518Z,25.40
2018-07-16T21:49:23.869Z,25.40
2018-07-16T21:51:53.753Z,25.30
2018-07-16T21:54:23.368Z,25.30
2018-07-16T21:56:53.004Z,25.30
2018-07-16T21:59:23.225Z,25.30
2018-07-16T22:02:01.257Z,25.30
2018-07-16T22:04:39.999Z,25.20
2018-07-16T22:07:10.917Z,25.20
2018-07-16T22:09:40.490Z,25.20
2018-07-16T22:12:18.330Z,25.10
2018-07-16T22:14:57.551Z,25.10
2018-07-16T22:17:28.253Z,25.10
2018-07-16T22:19:58.625Z,25.00
2018-07-16T22:22:28.319Z,25.10
2018-07-16T22:24:58.688Z,25.00
2018-07-16T22:27:28.555Z,25.00
2018-07-16T22:29:58.594Z,25.00
2018-07-16T22:32:28.767Z,25.00
2018-07-16T22:34:58.584Z,24.90
2018-07-16T22:37:28.656Z,24.90
2018-07-16T22:39:58.420Z,24.90
2018-07-16T22:42:28.559Z,24.80
2018-07-16T22:44:59.396Z,24.80
2018-07-16T22:47:29.635Z,24.80
2018-07-16T22:49:59.710Z,24.80
2018-07-16T22:52:29.918Z,24.70
2018-07-16T22:55:04.934Z,24.70
2018-07-16T22:57:34.740Z,24.70
2018-07-16T23:00:08.948Z,24.60
2018-07-16T23:02:39.076Z,24.60
2018-07-16T23:05:09.110Z,24.60
2018-07-16T23:07:40.713Z,24.60
2018-07-16T23:10:10.544Z,24.60
2018-07-16T23:12:40.700Z,24.60
2018-07-16T23:15:11.610Z,24.50
2018-07-16T23:17:42.446Z,24.50
2018-07-16T23:20:13.008Z,24.50
2018-07-16T23:22:54.904Z,24.40
2018-07-16T23:25:24.863Z,24.40
2018-07-16T23:27:55.585Z,24.40
2018-07-16T23:30:25.616Z,24.40
2018-07-16T23:32:56.039Z,24.40
2018-07-16T23:35:26.282Z,24.30
2018-07-16T23:37:56.385Z,24.30
2018-07-16T23:40:26.776Z,24.30
2018-07-16T23:42:56.366Z,24.30
2018-07-16T23:45:33.162Z,24.30
2018-07-16T23:48:03.138Z,24.20
2018-07-16T23:50:32.998Z,24.20
2018-07-16T23:53:02.471Z,24.20
2018-07-16T23:55:31.935Z,24.10
2018-07-16T23:58:01.443Z,24.10
